Time;durP1;ratioP1;P1;durP2;ratioP2;P2;SDS_P1;SDS_P2;PMS_P1;PMS_P2;Temp;Humidity;BMP_temperature;BMP_pressure;BME280_temperature;BME280_humidity;BME280_pressure;Samples;Min_cycle;Max_cycle;Signal;HPM_P1;HPM_P2
2021/08/02 00:37:13;;;;;;;;;;;;;;;;;;4951066;28;19926;-86
2021/08/02 00:46:53;;;;;;;;;;;;;;;;;;4335484;27;22568645;-84
2021/08/02 00:55:40;;;;;;;;;;;;;;;;;;4948531;28;20443;-85
2021/08/02 00:58:20;;;;;;;;;;;;;;;;;;4916465;28;19935;-83
2021/08/02 01:00:59;;;;;;;;;;;;;;;;;;4905540;29;19915;-89
2021/08/02 01:03:32;;;;;;;;;;;;;;;;;;4991374;28;19925;-89
2021/08/02 01:06:11;;;;;;;;;;;;;;;;;;5006608;28;19940;-88
2021/08/02 01:08:48;;;;;;;;;;;;;;;;;;5006406;28;19914;-91
2021/08/02 01:11:28;;;;;;;;;;;;;;;;;;5000174;28;19960;-83
2021/08/02 01:14:11;;;;;;;;;;;;;;;;;;4994251;28;19945;-84
2021/08/02 01:16:47;;;;;;;;;;;;;;;;;;5009286;28;20300;-82
2021/08/02 01:19:25;;;;;;;;;;;;;;;;;;4986141;28;19930;-83
2021/08/02 01:22:01;;;;;;;;;;;;;;;;;;4979946;28;19926;-86
2021/08/02 01:24:37;;;;;;;;;;;;;;;;;;4987537;28;19934;-83
2021/08/02 01:27:21;;;;;;;;;;;;;;;;;;5005743;28;19930;-87
2021/08/02 01:30:12;;;;;;;;;;;;;;;;;;4984429;28;19933;-83
2021/08/02 01:32:51;;;;;;;;;;;;;;;;;;5067510;28;19924;-88
2021/08/02 01:35:30;;;;;;;;;;;;;;;;;;5063051;28;19929;-83
2021/08/02 01:38:02;;;;;;;;;;;;;;;;;;5071274;28;19925;-83
2021/08/02 01:40:39;;;;;;;;;;;;;;;;;;5054696;28;19925;-83
2021/08/02 01:43:17;;;;;;;;;;;;;;;;;;5083115;28;19924;-83
2021/08/02 01:45:54;;;;;;;;;;;;;;;;;;5065351;28;19925;-87
2021/08/02 01:48:29;;;;;;;;;;;;;;;;;;5066926;28;19933;-83
2021/08/02 01:51:06;;;;;;;;;;;;;;;;;;5060495;28;19925;-90
2021/08/02 01:53:54;;;;;;;;;;;;;;;;;;5070173;28;19940;-84
2021/08/02 01:56:45;;;;;;;;;;;;;;;;;;5051970;28;19940;-83
2021/08/02 01:59:40;;;;;;;;;;;;;;;;;;5055512;28;20326;-84
2021/08/02 02:05:08;;;;;;;;;;;;;;;;;;5028526;28;19925;-87
2021/08/02 02:07:43;;;;;;;;;;;;;;;;;;5033047;28;19940;-87
2021/08/02 02:10:38;;;;;;;;;;;;;;;;;;5035233;28;19928;-85
2021/08/02 02:13:16;;;;;;;;;;;;;;;;;;5026869;28;19925;-83
2021/08/02 02:15:57;;;;;;;;;;;;;;;;;;5049173;28;19928;-87
2021/08/02 02:18:36;;;;;;;;;;;;;;;;;;5047935;28;19931;-88
2021/08/02 02:21:27;;;;;;;;;;;;;;;;;;5031692;28;20120;-85
2021/08/02 02:24:05;;;;;;;;;;;;;;;;;;5051503;28;19932;-83
2021/08/02 02:26:40;;;;;;;;;;;;;;;;;;5034949;28;19933;-87
2021/08/02 02:29:13;;;;;;;;;;;;;;;;;;5034971;28;19925;-87
2021/08/02 02:31:44;;;;;;;;;;;;;;;;;;5030339;28;20390;-86
2021/08/02 02:34:15;;;;;;;;;;;;;;;;;;5044136;28;19913;-90
2021/08/02 02:36:47;;;;;;;;;;;;;;;;;;5052956;28;19920;-90
2021/08/02 02:39:18;;;;;;;;;;;;;;;;;;5064602;28;20324;-85
2021/08/02 02:41:49;;;;;;;;;;;;;;;;;;5038791;28;19924;-88
2021/08/02 02:44:23;;;;;;;;;;;;;;;;;;5038461;28;19935;-87
2021/08/02 02:46:54;;;;;;;;;;;;;;;;;;5049660;28;19925;-86
2021/08/02 02:49:25;;;;;;;;;;;;;;;;;;5053072;28;20202;-85
2021/08/02 02:51:59;;;;;;;;;;;;;;;;;;5040726;28;19931;-86
2021/08/02 02:54:30;;;;;;;;;;;;;;;;;;5054739;28;19935;-84
2021/08/02 02:57:03;;;;;;;;;;;;;;;;;;5035463;28;20233;-85
2021/08/02 02:59:36;;;;;;;;;;;;;;;;;;5040125;28;19924;-85
2021/08/02 03:02:06;;;;;;;;;;;;;;;;;;5025418;28;19936;-87
2021/08/02 03:04:40;;;;;;;;;;;;;;;;;;5051090;28;19924;-86
2021/08/02 03:07:15;;;;;;;;;;;;;;;;;;5043649;28;19933;-85
2021/08/02 03:09:47;;;;;;;;;;;;;;;;;;5042697;28;19936;-83
2021/08/02 03:12:20;;;;;;;;;;;;;;;;;;5045871;28;19925;-83
2021/08/02 03:14:55;;;;;;;;;;;;;;;;;;5034887;28;19932;-85
2021/08/02 03:17:31;;;;;;;;;;;;;;;;;;5043051;28;19925;-86
2021/08/02 03:20:04;;;;;;;;;;;;;;;;;;5047814;28;19947;-91
2021/08/02 03:22:42;;;;;;;;;;;;;;;;;;5046149;28;19931;-90
2021/08/02 03:25:20;;;;;;;;;;;;;;;;;;5046405;28;19931;-86
2021/08/02 03:27:56;;;;;;;;;;;;;;;;;;5033913;28;19929;-86
2021/08/02 03:30:31;;;;;;;;;;;;;;;;;;5051363;28;19932;-84
2021/08/02 03:33:03;;;;;;;;;;;;;;;;;;5047257;28;19924;-84
2021/08/02 03:35:34;;;;;;;;;;;;;;;;;;5034446;28;19924;-83
2021/08/02 03:38:06;;;;;;;;;;;;;;;;;;5043746;28;20302;-88
2021/08/02 03:40:37;;;;;;;;;;;;;;;;;;5046438;28;20496;-88
2021/08/02 03:43:08;;;;;;;;;;;;;;;;;;5031782;28;19925;-86
2021/08/02 03:45:40;;;;;;;;;;;;;;;;;;5024023;28;19931;-83
2021/08/02 03:48:11;;;;;;;;;;;;;;;;;;5037752;28;19928;-86
2021/08/02 03:50:41;;;;;;;;;;;;;;;;;;5026603;28;20275;-86
2021/08/02 03:53:10;;;;;;;;;;;;;;;;;;5045993;28;19924;-84
2021/08/02 03:55:43;;;;;;;;;;;;;;;;;;5044854;28;19939;-87
2021/08/02 03:58:13;;;;;;;;;;;;;;;;;;5042815;28;20425;-89
2021/08/02 04:00:45;;;;;;;;;;;;;;;;;;5045942;28;19925;-88
2021/08/02 04:03:17;;;;;;;;;;;;;;;;;;5028595;28;19925;-91
2021/08/02 04:05:48;;;;;;;;;;;;;;;;;;5045767;28;19932;-84
2021/08/02 04:08:19;;;;;;;;;;;;;;;;;;5028882;28;19935;-89
2021/08/02 04:36:14;;;;;;;;;;;;;;;;;;522024;26;21105;-86
2021/08/02 04:39:04;;;;;;;;;;;;;;;;;;5015988;28;20288;-86
2021/08/02 04:42:28;;;;;;;;;;;;;;;;;;5034740;28;19928;-87
2021/08/02 04:54:43;;;;;;;;;;;;;;;;;;5060705;28;19925;-84
2021/08/02 04:58:31;;;;;;;;;;;;;;;;;;5074771;28;19931;-90
2021/08/02 10:35:04;;;;;;;;;;;;;;;;;;6111805;23;2042360;-86
2021/08/02 10:37:33;;;;;;;;;;;;;;;;;;6128886;23;19927;-88
2021/08/02 10:40:12;;;;;;;;;;;;;;;;;;6127765;23;19920;-87
2021/08/02 10:42:47;;;;;;;;;;;;;;;;;;6128040;23;19920;-89
2021/08/02 10:45:15;;;;;;;;;;;;;;;;;;6128155;23;20333;-88
2021/08/02 10:47:44;;;;;;;;;;;;;;;;;;6130259;23;19931;-89
2021/08/02 10:50:23;;;;;;;;;;;;;;;;;;6128761;23;20348;-88
2021/08/02 10:52:52;;;;;;;;;;;;;;;;;;6125914;23;20340;-88
2021/08/02 10:55:20;;;;;;;;;;;;;;;;;;6128517;23;19931;-89
2021/08/02 10:57:58;;;;;;;;;;;;;;;;;;6129974;23;20268;-88
2021/08/02 11:00:26;;;;;;;;;;;;;;;;;;6130376;23;19920;-88
2021/08/02 11:02:55;;;;;;;;;;;;;;;;;;6131586;23;19932;-88
2021/08/02 11:05:30;;;;;;;;;;;;;;;;;;6130174;23;19930;-87
2021/08/02 11:08:02;;;;;;;;;;;;;;;;;;6166050;23;19920;-88
2021/08/02 11:10:30;;;;;;;;;;;;;;;;;;6128656;23;20174;-87
2021/08/02 11:12:58;;;;;;;;;;;;;;;;;;6155676;23;20353;-88
2021/08/02 11:15:27;;;;;;;;;;;;;;;;;;6156364;23;19924;-87
2021/08/02 11:17:55;;;;;;;;;;;;;;;;;;6181300;23;19911;-86
2021/08/02 11:20:26;;;;;;;;;;;;;;;;;;6157858;23;19956;-87
2021/08/02 11:22:55;;;;;;;;;;;;;;;;;;6136434;23;19924;-87
2021/08/02 11:25:24;;;;;;;;;;;;;;;;;;6126292;23;19931;-86
2021/08/02 11:27:53;;;;;;;;;;;;;;;;;;6129276;23;20341;-86
2021/08/02 11:30:21;;;;;;;;;;;;;;;;;;6129406;23;20356;-86
2021/08/02 11:32:49;;;;;;;;;;;;;;;;;;6153774;23;19920;-86
2021/08/02 11:35:18;;;;;;;;;;;;;;;;;;6154230;23;19920;-85
2021/08/02 11:37:51;;;;;;;;;;;;;;;;;;6129917;23;19924;-85
2021/08/02 11:40:19;;;;;;;;;;;;;;;;;;6128532;23;20265;-85
2021/08/02 11:42:51;;;;;;;;;;;;;;;;;;6129299;23;19921;-86
2021/08/02 11:45:19;;;;;;;;;;;;;;;;;;6127798;23;20284;-86
2021/08/02 11:47:48;;;;;;;;;;;;;;;;;;6129754;23;20263;-86
2021/08/02 11:50:17;;;;;;;;;;;;;;;;;;6131140;23;19924;-86
2021/08/02 11:52:46;;;;;;;;;;;;;;;;;;6125726;23;19924;-86
2021/08/02 11:55:17;;;;;;;;;;;;;;;;;;6156056;23;19920;-85
2021/08/02 11:57:45;;;;;;;;;;;;;;;;;;6153892;23;19943;-86
2021/08/02 12:00:15;;;;;;;;;;;;;;;;;;6154840;23;19935;-85
2021/08/02 12:02:44;;;;;;;;;;;;;;;;;;6155534;23;20097;-86
2021/08/02 12:05:20;;;;;;;;;;;;;;;;;;6156005;23;19924;-86
2021/08/02 12:08:11;;;;;;;;;;;;;;;;;;6128960;23;19920;-86
2021/08/02 12:10:41;;;;;;;;;;;;;;;;;;6129064;23;20344;-85
2021/08/02 12:13:11;;;;;;;;;;;;;;;;;;6165074;23;19921;-85
2021/08/02 12:15:50;;;;;;;;;;;;;;;;;;6135356;23;19920;-86
2021/08/02 12:18:21;;;;;;;;;;;;;;;;;;6188903;23;19943;-86
2021/08/02 12:20:50;;;;;;;;;;;;;;;;;;6134692;23;19926;-86
2021/08/02 12:23:22;;;;;;;;;;;;;;;;;;6128892;23;19924;-85
2021/08/02 12:25:51;;;;;;;;;;;;;;;;;;6127486;23;20075;-85
2021/08/02 12:28:20;;;;;;;;;;;;;;;;;;6123681;23;19924;-85
2021/08/02 12:31:03;;;;;;;;;;;;;;;;;;6129609;23;20340;-85
2021/08/02 12:33:31;;;;;;;;;;;;;;;;;;6161912;23;19930;-83
2021/08/02 12:35:59;;;;;;;;;;;;;;;;;;6160879;23;19943;-84
2021/08/02 12:38:28;;;;;;;;;;;;;;;;;;6132206;23;19943;-85
2021/08/02 12:41:00;;;;;;;;;;;;;;;;;;6131071;23;19931;-85
2021/08/02 12:43:29;;;;;;;;;;;;;;;;;;6168148;23;20337;-85
2021/08/02 12:46:00;;;;;;;;;;;;;;;;;;6129093;23;19920;-85
2021/08/02 12:48:28;;;;;;;;;;;;;;;;;;6130365;23;20346;-85
2021/08/02 12:50:57;;;;;;;;;;;;;;;;;;6133075;23;19927;-84
2021/08/02 12:53:25;;;;;;;;;;;;;;;;;;6164998;23;19920;-84
2021/08/02 12:55:53;;;;;;;;;;;;;;;;;;6166262;23;19920;-84
2021/08/02 12:58:24;;;;;;;;;;;;;;;;;;6141181;23;19924;-84
2021/08/02 13:00:52;;;;;;;;;;;;;;;;;;6139400;23;19934;-83
2021/08/02 13:03:21;;;;;;;;;;;;;;;;;;6167591;23;19939;-84
2021/08/02 13:05:49;;;;;;;;;;;;;;;;;;6165909;23;19944;-84
2021/08/02 13:08:17;;;;;;;;;;;;;;;;;;6140422;23;19931;-84
2021/08/02 13:10:46;;;;;;;;;;;;;;;;;;6140188;23;19920;-83
2021/08/02 13:13:14;;;;;;;;;;;;;;;;;;6140851;23;19920;-83
2021/08/02 13:15:51;;;;;;;;;;;;;;;;;;6142492;23;19926;-84
2021/08/02 13:18:22;;;;;;;;;;;;;;;;;;6142403;23;19972;-84
2021/08/02 13:20:51;;;;;;;;;;;;;;;;;;6140265;23;19921;-82
2021/08/02 13:23:31;;;;;;;;;;;;;;;;;;6156878;23;19920;-83
2021/08/02 13:28:45;;;;;;;;;;;;;;;;;;6194187;23;19927;-83
2021/08/02 13:31:15;;;;;;;;;;;;;;;;;;6181692;23;19924;-88
2021/08/02 13:33:43;;;;;;;;;;;;;;;;;;6156492;23;19927;-82
2021/08/02 13:36:19;;;;;;;;;;;;;;;;;;6132987;23;20363;-83
2021/08/02 13:39:01;;;;;;;;;;;;;;;;;;6133643;23;19920;-84
2021/08/02 13:41:29;;;;;;;;;;;;;;;;;;6134331;23;19930;-83
2021/08/02 13:44:00;;;;;;;;;;;;;;;;;;6159746;23;19920;-83
2021/08/02 13:46:57;;;;;;;;;;;;;;;;;;6134067;23;19928;-82
2021/08/02 13:49:27;;;;;;;;;;;;;;;;;;6131327;23;19931;-82
2021/08/02 13:51:55;;;;;;;;;;;;;;;;;;6132254;23;19984;-82
2021/08/02 13:54:23;;;;;;;;;;;;;;;;;;6157935;23;19928;-84
2021/08/02 13:56:52;;;;;;;;;;;;;;;;;;6160315;23;19928;-82
2021/08/02 13:59:31;;;;;;;;;;;;;;;;;;6153823;23;19931;-83
2021/08/02 14:02:01;;;;;;;;;;;;;;;;;;6152140;23;19928;-83
2021/08/02 14:04:29;;;;;;;;;;;;;;;;;;6134288;23;20341;-83
2021/08/02 14:06:58;;;;;;;;;;;;;;;;;;6135201;23;20363;-83
2021/08/02 14:09:26;;;;;;;;;;;;;;;;;;6159239;23;19920;-82
2021/08/02 14:11:59;;;;;;;;;;;;;;;;;;6182686;23;19914;-84
2021/08/02 14:14:28;;;;;;;;;;;;;;;;;;6157418;23;19921;-85
2021/08/02 14:16:57;;;;;;;;;;;;;;;;;;6133936;23;19942;-83
2021/08/02 14:19:27;;;;;;;;;;;;;;;;;;6158635;23;19925;-82
2021/08/02 14:21:59;;;;;;;;;;;;;;;;;;6132151;23;20234;-82
2021/08/02 14:24:28;;;;;;;;;;;;;;;;;;6132993;23;19924;-83
2021/08/02 14:26:56;;;;;;;;;;;;;;;;;;6133633;23;20129;-82
2021/08/02 14:29:25;;;;;;;;;;;;;;;;;;6134954;23;19920;-84
2021/08/02 14:31:53;;;;;;;;;;;;;;;;;;6143799;23;19931;-83
2021/08/02 14:34:21;;;;;;;;;;;;;;;;;;6137541;23;19924;-85
2021/08/02 14:36:51;;;;;;;;;;;;;;;;;;6173660;23;19930;-83
2021/08/02 14:39:20;;;;;;;;;;;;;;;;;;6136291;23;19920;-83
2021/08/02 14:41:53;;;;;;;;;;;;;;;;;;6132180;23;20258;-83
2021/08/02 14:44:22;;;;;;;;;;;;;;;;;;6134733;23;19928;-82
2021/08/02 14:46:51;;;;;;;;;;;;;;;;;;6134043;23;19920;-82
2021/08/02 14:49:20;;;;;;;;;;;;;;;;;;6132294;23;19924;-83
2021/08/02 14:51:49;;;;;;;;;;;;;;;;;;6155447;23;19927;-82
2021/08/02 14:54:21;;;;;;;;;;;;;;;;;;6133962;23;19932;-83
2021/08/02 14:56:49;;;;;;;;;;;;;;;;;;6133239;23;19924;-82
2021/08/02 14:59:17;;;;;;;;;;;;;;;;;;6157467;23;20265;-84
2021/08/02 15:01:46;;;;;;;;;;;;;;;;;;6133166;23;19931;-83
2021/08/02 15:04:14;;;;;;;;;;;;;;;;;;6134270;23;19924;-83
2021/08/02 15:06:42;;;;;;;;;;;;;;;;;;6132495;23;19927;-83
2021/08/02 15:09:12;;;;;;;;;;;;;;;;;;6133812;23;19927;-82
2021/08/02 15:11:43;;;;;;;;;;;;;;;;;;6133873;23;19936;-82
2021/08/02 15:14:11;;;;;;;;;;;;;;;;;;6168247;23;19930;-83
2021/08/02 15:16:43;;;;;;;;;;;;;;;;;;6134871;23;20232;-82
2021/08/02 15:19:13;;;;;;;;;;;;;;;;;;6157927;23;19927;-83
2021/08/02 15:21:42;;;;;;;;;;;;;;;;;;6134323;23;19927;-83
2021/08/02 15:24:11;;;;;;;;;;;;;;;;;;6134568;23;20169;-82
2021/08/02 15:26:43;;;;;;;;;;;;;;;;;;6185328;23;19928;-84
2021/08/02 15:29:14;;;;;;;;;;;;;;;;;;6132643;23;19931;-83
2021/08/02 15:31:43;;;;;;;;;;;;;;;;;;6133679;23;19920;-84
2021/08/02 15:34:12;;;;;;;;;;;;;;;;;;6132834;23;19927;-82
2021/08/02 15:36:41;;;;;;;;;;;;;;;;;;6134159;23;19927;-83
2021/08/02 15:39:11;;;;;;;;;;;;;;;;;;6132473;23;19920;-83
2021/08/02 15:41:40;;;;;;;;;;;;;;;;;;6134141;23;19920;-83
2021/08/02 15:44:10;;;;;;;;;;;;;;;;;;6137025;23;19926;-85
2021/08/02 15:46:40;;;;;;;;;;;;;;;;;;6136353;23;19921;-82
2021/08/02 15:49:11;;;;;;;;;;;;;;;;;;6159120;23;19931;-84
2021/08/02 15:51:39;;;;;;;;;;;;;;;;;;6130728;23;19920;-88
2021/08/02 15:54:07;;;;;;;;;;;;;;;;;;6128026;23;19920;-87
2021/08/02 15:56:36;;;;;;;;;;;;;;;;;;6129532;23;19939;-88
2021/08/02 15:59:06;;;;;;;;;;;;;;;;;;6129074;23;19920;-85
2021/08/02 16:01:36;;;;;;;;;;;;;;;;;;6128431;23;19928;-89
2021/08/02 16:04:06;;;;;;;;;;;;;;;;;;6129816;23;19931;-84
2021/08/02 16:06:36;;;;;;;;;;;;;;;;;;6155026;23;20249;-86
2021/08/02 16:09:04;;;;;;;;;;;;;;;;;;6130014;23;19924;-87
2021/08/02 16:11:34;;;;;;;;;;;;;;;;;;6130295;23;19920;-90
2021/08/02 16:14:03;;;;;;;;;;;;;;;;;;6130398;23;19921;-88
2021/08/02 16:16:32;;;;;;;;;;;;;;;;;;6129768;23;19921;-86
2021/08/02 16:19:02;;;;;;;;;;;;;;;;;;6129335;23;19920;-87
2021/08/02 16:21:30;;;;;;;;;;;;;;;;;;6130385;23;19920;-87
2021/08/02 16:23:58;;;;;;;;;;;;;;;;;;6130318;23;19921;-86
2021/08/02 16:26:27;;;;;;;;;;;;;;;;;;6128909;23;19920;-86
2021/08/02 16:28:55;;;;;;;;;;;;;;;;;;6128966;23;19931;-88
2021/08/02 16:31:23;;;;;;;;;;;;;;;;;;6130057;23;19925;-87
2021/08/02 16:33:52;;;;;;;;;;;;;;;;;;6129399;23;19921;-87
2021/08/02 16:36:21;;;;;;;;;;;;;;;;;;6130534;23;20264;-86
2021/08/02 16:38:50;;;;;;;;;;;;;;;;;;6128243;23;19920;-87
2021/08/02 16:41:18;;;;;;;;;;;;;;;;;;6130198;23;20406;-87
2021/08/02 16:43:46;;;;;;;;;;;;;;;;;;6155791;23;19924;-87
2021/08/02 16:46:15;;;;;;;;;;;;;;;;;;6129655;23;20104;-88
2021/08/02 16:48:43;;;;;;;;;;;;;;;;;;6129525;23;19920;-88
2021/08/02 16:51:13;;;;;;;;;;;;;;;;;;6129636;23;19927;-92
2021/08/02 16:53:43;;;;;;;;;;;;;;;;;;6128786;23;20265;-88
2021/08/02 16:56:11;;;;;;;;;;;;;;;;;;6129893;23;19943;-88
2021/08/02 16:58:39;;;;;;;;;;;;;;;;;;6129196;23;19920;-89
2021/08/02 17:01:08;;;;;;;;;;;;;;;;;;6129679;23;19931;-87
2021/08/02 17:03:36;;;;;;;;;;;;;;;;;;6156726;23;19924;-88
2021/08/02 17:06:05;;;;;;;;;;;;;;;;;;6153543;23;19904;-90
2021/08/02 17:08:35;;;;;;;;;;;;;;;;;;6158177;23;19948;-89
2021/08/02 17:11:05;;;;;;;;;;;;;;;;;;6183462;23;20353;-86
2021/08/02 17:13:33;;;;;;;;;;;;;;;;;;6126141;23;20240;-85
2021/08/02 17:16:01;;;;;;;;;;;;;;;;;;6127290;23;19920;-86
2021/08/02 17:18:31;;;;;;;;;;;;;;;;;;6128987;23;19927;-85
2021/08/02 17:20:59;;;;;;;;;;;;;;;;;;6150396;23;19924;-87
2021/08/02 17:23:27;;;;;;;;;;;;;;;;;;6151255;23;19931;-86
2021/08/02 17:25:56;;;;;;;;;;;;;;;;;;6127708;23;19924;-88
2021/08/02 17:28:26;;;;;;;;;;;;;;;;;;6128092;23;19931;-87
2021/08/02 17:30:55;;;;;;;;;;;;;;;;;;6126393;23;19920;-87
2021/08/02 17:33:23;;;;;;;;;;;;;;;;;;6130908;23;19928;-88
2021/08/02 17:35:52;;;;;;;;;;;;;;;;;;6128661;23;19921;-87
2021/08/02 17:38:20;;;;;;;;;;;;;;;;;;6129174;23;19947;-87
2021/08/02 17:40:49;;;;;;;;;;;;;;;;;;6129174;23;19921;-88
2021/08/02 17:43:17;;;;;;;;;;;;;;;;;;6133745;23;19924;-88
2021/08/02 17:45:48;;;;;;;;;;;;;;;;;;6135589;23;19926;-86
2021/08/02 17:48:16;;;;;;;;;;;;;;;;;;6135017;23;19920;-88
2021/08/02 17:50:46;;;;;;;;;;;;;;;;;;6133299;23;19924;-90
2021/08/02 17:53:14;;;;;;;;;;;;;;;;;;6138230;23;19921;-86
2021/08/02 17:55:42;;;;;;;;;;;;;;;;;;6131835;23;19920;-87
2021/08/02 17:58:11;;;;;;;;;;;;;;;;;;6135769;23;19947;-87
2021/08/02 18:00:39;;;;;;;;;;;;;;;;;;6133267;23;19927;-87
2021/08/02 18:03:09;;;;;;;;;;;;;;;;;;6132681;23;19935;-88
2021/08/02 18:05:38;;;;;;;;;;;;;;;;;;6133713;23;19924;-88
2021/08/02 18:08:06;;;;;;;;;;;;;;;;;;6134444;23;20356;-87
2021/08/02 18:10:34;;;;;;;;;;;;;;;;;;6133331;23;19943;-84
2021/08/02 18:13:03;;;;;;;;;;;;;;;;;;6133088;23;19920;-89
2021/08/02 18:15:31;;;;;;;;;;;;;;;;;;6134333;23;19947;-84
2021/08/02 18:17:59;;;;;;;;;;;;;;;;;;6135489;23;20144;-88
2021/08/02 18:20:29;;;;;;;;;;;;;;;;;;6132410;23;19924;-90
2021/08/02 18:22:57;;;;;;;;;;;;;;;;;;6135934;23;19924;-87
2021/08/02 18:25:26;;;;;;;;;;;;;;;;;;6138349;23;19928;-90
2021/08/02 18:27:54;;;;;;;;;;;;;;;;;;6135946;23;19928;-89
2021/08/02 18:30:23;;;;;;;;;;;;;;;;;;6135412;23;20272;-93
2021/08/02 18:32:51;;;;;;;;;;;;;;;;;;6137434;23;19920;-88
2021/08/02 18:35:19;;;;;;;;;;;;;;;;;;6138594;23;19921;-86
2021/08/02 18:37:50;;;;;;;;;;;;;;;;;;6134944;23;19935;-87
2021/08/02 18:40:19;;;;;;;;;;;;;;;;;;6131595;23;19924;-90
2021/08/02 18:42:47;;;;;;;;;;;;;;;;;;6136437;23;19920;-90
2021/08/02 18:45:16;;;;;;;;;;;;;;;;;;6134997;23;19943;-88
2021/08/02 18:47:44;;;;;;;;;;;;;;;;;;6132897;23;20368;-91
2021/08/02 18:50:12;;;;;;;;;;;;;;;;;;6134422;23;19951;-88
2021/08/02 18:52:41;;;;;;;;;;;;;;;;;;6132596;23;19920;-90
2021/08/02 18:55:12;;;;;;;;;;;;;;;;;;6135319;23;19924;-89
2021/08/02 18:57:40;;;;;;;;;;;;;;;;;;6131323;23;19920;-90
2021/08/02 19:00:09;;;;;;;;;;;;;;;;;;6136438;23;19920;-89
2021/08/02 19:02:38;;;;;;;;;;;;;;;;;;6135006;23;20348;-90
2021/08/02 19:05:07;;;;;;;;;;;;;;;;;;6134496;23;20184;-89
2021/08/02 19:07:38;;;;;;;;;;;;;;;;;;6133471;23;19947;-89
2021/08/02 19:10:08;;;;;;;;;;;;;;;;;;6132728;23;19920;-87
2021/08/02 19:12:49;;;;;;;;;;;;;;;;;;6133473;23;19927;-87
2021/08/02 19:15:18;;;;;;;;;;;;;;;;;;6131694;23;19925;-90
2021/08/02 19:17:50;;;;;;;;;;;;;;;;;;6130624;23;19931;-89
2021/08/02 19:20:19;;;;;;;;;;;;;;;;;;6131061;23;19920;-90
2021/08/02 19:22:51;;;;;;;;;;;;;;;;;;6131581;23;19924;-91
2021/08/02 19:25:19;;;;;;;;;;;;;;;;;;6132971;23;20260;-90
2021/08/02 19:27:50;;;;;;;;;;;;;;;;;;6133734;23;19932;-91
2021/08/02 19:30:18;;;;;;;;;;;;;;;;;;6131347;23;19924;-91
2021/08/02 19:32:48;;;;;;;;;;;;;;;;;;6126734;23;20242;-88
2021/08/02 19:35:16;;;;;;;;;;;;;;;;;;6134120;23;19925;-89
2021/08/02 19:37:45;;;;;;;;;;;;;;;;;;6134951;23;19921;-90
2021/08/02 19:40:14;;;;;;;;;;;;;;;;;;6133995;23;19925;-91
2021/08/02 19:42:43;;;;;;;;;;;;;;;;;;6134411;23;19928;-91
2021/08/02 19:45:13;;;;;;;;;;;;;;;;;;6135324;23;19935;-90
2021/08/02 19:47:52;;;;;;;;;;;;;;;;;;6170063;23;19927;-90
2021/08/02 19:50:21;;;;;;;;;;;;;;;;;;6135532;23;19947;-92
2021/08/02 19:52:49;;;;;;;;;;;;;;;;;;6134400;23;19924;-91
2021/08/02 19:55:19;;;;;;;;;;;;;;;;;;6133623;23;19927;-91
2021/08/02 19:57:48;;;;;;;;;;;;;;;;;;6134228;23;19920;-90
2021/08/02 20:00:18;;;;;;;;;;;;;;;;;;6152389;23;19904;-93
2021/08/02 20:02:47;;;;;;;;;;;;;;;;;;6185885;23;20052;-92
2021/08/02 20:05:16;;;;;;;;;;;;;;;;;;6139896;23;20349;-89
2021/08/02 20:07:45;;;;;;;;;;;;;;;;;;6159894;23;19920;-89
2021/08/02 20:10:13;;;;;;;;;;;;;;;;;;6133319;23;19920;-90
2021/08/02 20:12:43;;;;;;;;;;;;;;;;;;6134081;23;19921;-89
2021/08/02 20:15:12;;;;;;;;;;;;;;;;;;6135305;23;19920;-90
2021/08/02 20:17:43;;;;;;;;;;;;;;;;;;6135064;23;19932;-90
2021/08/02 20:20:12;;;;;;;;;;;;;;;;;;6157435;23;19920;-90
2021/08/02 20:22:42;;;;;;;;;;;;;;;;;;6159284;23;19921;-90
2021/08/02 20:25:11;;;;;;;;;;;;;;;;;;6156472;23;19924;-91
2021/08/02 20:27:40;;;;;;;;;;;;;;;;;;6134233;23;19925;-89
2021/08/02 20:30:11;;;;;;;;;;;;;;;;;;6132156;23;19927;-87
2021/08/02 20:32:42;;;;;;;;;;;;;;;;;;6135378;23;19924;-91
2021/08/02 20:35:11;;;;;;;;;;;;;;;;;;6156650;23;19924;-89
2021/08/02 20:37:40;;;;;;;;;;;;;;;;;;6131622;23;19920;-90
2021/08/02 20:40:10;;;;;;;;;;;;;;;;;;6132453;23;19928;-91
2021/08/02 20:42:40;;;;;;;;;;;;;;;;;;6133505;23;20086;-89
2021/08/02 20:45:10;;;;;;;;;;;;;;;;;;6132873;23;20242;-89
2021/08/02 20:47:44;;;;;;;;;;;;;;;;;;6135571;23;19928;-89
2021/08/02 20:50:25;;;;;;;;;;;;;;;;;;6160581;23;19920;-90
2021/08/02 20:52:55;;;;;;;;;;;;;;;;;;6135037;23;20355;-89
2021/08/02 20:55:27;;;;;;;;;;;;;;;;;;6134477;23;19920;-91
2021/08/02 20:57:58;;;;;;;;;;;;;;;;;;6133706;23;19920;-89
2021/08/02 21:00:45;;;;;;;;;;;;;;;;;;6135091;23;20352;-89
2021/08/02 21:03:26;;;;;;;;;;;;;;;;;;6137903;23;20256;-86
2021/08/02 21:09:43;;;;;;;;;;;;;;;;;;6101132;23;19928;-90
2021/08/02 21:12:39;;;;;;;;;;;;;;;;;;6136383;23;19927;-88
2021/08/02 21:15:16;;;;;;;;;;;;;;;;;;6137622;23;19927;-91
2021/08/02 21:17:47;;;;;;;;;;;;;;;;;;6135612;23;20352;-91
2021/08/02 21:20:19;;;;;;;;;;;;;;;;;;6134471;23;20497;-90
2021/08/02 21:22:50;;;;;;;;;;;;;;;;;;6135229;23;19920;-89
2021/08/02 21:25:22;;;;;;;;;;;;;;;;;;6134509;23;20272;-91
2021/08/02 21:27:53;;;;;;;;;;;;;;;;;;6131593;23;19920;-92
2021/08/02 21:30:21;;;;;;;;;;;;;;;;;;6131473;23;20264;-88
2021/08/02 21:32:50;;;;;;;;;;;;;;;;;;6135520;23;19924;-90
2021/08/02 21:35:19;;;;;;;;;;;;;;;;;;6136932;23;19920;-88
2021/08/02 21:37:48;;;;;;;;;;;;;;;;;;6133518;23;19920;-89
2021/08/02 21:40:18;;;;;;;;;;;;;;;;;;6135821;23;19920;-88
2021/08/02 21:42:48;;;;;;;;;;;;;;;;;;6162212;23;19928;-89
2021/08/02 21:45:17;;;;;;;;;;;;;;;;;;6136847;23;19920;-91
2021/08/02 21:47:46;;;;;;;;;;;;;;;;;;6135851;23;19921;-90
2021/08/02 21:50:15;;;;;;;;;;;;;;;;;;6136143;23;19931;-90
2021/08/02 21:52:43;;;;;;;;;;;;;;;;;;6136836;23;19920;-91
2021/08/02 21:55:13;;;;;;;;;;;;;;;;;;6156769;23;19920;-89
2021/08/02 21:57:41;;;;;;;;;;;;;;;;;;6133266;23;19924;-91
2021/08/02 22:00:10;;;;;;;;;;;;;;;;;;6159628;23;19927;-88
2021/08/02 22:02:44;;;;;;;;;;;;;;;;;;6161205;23;19924;-90
2021/08/02 22:05:14;;;;;;;;;;;;;;;;;;6136893;23;19943;-88
2021/08/02 22:07:42;;;;;;;;;;;;;;;;;;6135943;23;19926;-89
2021/08/02 22:10:11;;;;;;;;;;;;;;;;;;6135310;23;19928;-90
2021/08/02 22:12:41;;;;;;;;;;;;;;;;;;6135468;23;19920;-91
2021/08/02 22:15:11;;;;;;;;;;;;;;;;;;6138093;23;19924;-91
2021/08/02 22:17:39;;;;;;;;;;;;;;;;;;6135265;23;19920;-90
2021/08/02 22:20:08;;;;;;;;;;;;;;;;;;6134942;23;19931;-90
2021/08/02 22:22:51;;;;;;;;;;;;;;;;;;6136226;23;19928;-91
2021/08/02 22:25:19;;;;;;;;;;;;;;;;;;6134389;23;19920;-90
2021/08/02 22:27:49;;;;;;;;;;;;;;;;;;6160021;23;19928;-90
2021/08/02 22:30:18;;;;;;;;;;;;;;;;;;6134558;23;19920;-91
2021/08/02 22:32:46;;;;;;;;;;;;;;;;;;6135120;23;19920;-91
2021/08/02 22:35:17;;;;;;;;;;;;;;;;;;6135443;23;19927;-90
2021/08/02 22:37:46;;;;;;;;;;;;;;;;;;6135049;23;19926;-89
2021/08/02 22:40:15;;;;;;;;;;;;;;;;;;6138443;23;19920;-91
2021/08/02 22:42:44;;;;;;;;;;;;;;;;;;6137953;23;20344;-90
2021/08/02 22:45:14;;;;;;;;;;;;;;;;;;6138225;23;19920;-90
2021/08/02 22:47:43;;;;;;;;;;;;;;;;;;6136617;23;19927;-91
2021/08/02 22:50:13;;;;;;;;;;;;;;;;;;6162898;23;19927;-91
2021/08/02 22:52:42;;;;;;;;;;;;;;;;;;6134862;23;19924;-91
2021/08/02 22:55:11;;;;;;;;;;;;;;;;;;6152870;23;19921;-90
2021/08/02 22:57:41;;;;;;;;;;;;;;;;;;6141382;23;19921;-88
2021/08/02 23:00:10;;;;;;;;;;;;;;;;;;6136495;23;19921;-89
2021/08/02 23:02:44;;;;;;;;;;;;;;;;;;6188041;23;19927;-90
2021/08/02 23:05:15;;;;;;;;;;;;;;;;;;6137286;23;20012;-91
2021/08/02 23:07:43;;;;;;;;;;;;;;;;;;6136795;23;19927;-92
2021/08/02 23:10:11;;;;;;;;;;;;;;;;;;6136119;23;19925;-90
2021/08/02 23:12:40;;;;;;;;;;;;;;;;;;6139837;23;19920;-90
2021/08/02 23:15:09;;;;;;;;;;;;;;;;;;6138195;23;19920;-90
2021/08/02 23:17:37;;;;;;;;;;;;;;;;;;6136878;23;19927;-92
2021/08/02 23:20:08;;;;;;;;;;;;;;;;;;6136624;23;19927;-88
2021/08/02 23:22:36;;;;;;;;;;;;;;;;;;6137913;23;19939;-90
2021/08/02 23:25:05;;;;;;;;;;;;;;;;;;6138562;23;19931;-91
2021/08/02 23:27:34;;;;;;;;;;;;;;;;;;6140413;23;19927;-89
2021/08/02 23:30:03;;;;;;;;;;;;;;;;;;6137155;23;19930;-90
2021/08/02 23:32:31;;;;;;;;;;;;;;;;;;6160579;23;19921;-90
2021/08/02 23:35:00;;;;;;;;;;;;;;;;;;6140923;23;19931;-90
2021/08/02 23:37:30;;;;;;;;;;;;;;;;;;6137836;23;20363;-90
2021/08/02 23:39:59;;;;;;;;;;;;;;;;;;6139683;23;19920;-90
2021/08/02 23:42:27;;;;;;;;;;;;;;;;;;6136530;23;19920;-90
2021/08/02 23:44:55;;;;;;;;;;;;;;;;;;6134109;23;19928;-90
2021/08/02 23:47:24;;;;;;;;;;;;;;;;;;6140699;23;20012;-91
2021/08/02 23:49:53;;;;;;;;;;;;;;;;;;6138484;23;19931;-89
2021/08/02 23:52:21;;;;;;;;;;;;;;;;;;6137642;23;19924;-92
2021/08/02 23:54:51;;;;;;;;;;;;;;;;;;6138165;23;19921;-91
2021/08/02 23:57:20;;;;;;;;;;;;;;;;;;6139293;23;19924;-92
2021/08/02 23:59:48;;;;;;;;;;;;;;;;;;6139751;23;19927;-93
